Time;durP1;ratioP1;P1;durP2;ratioP2;P2;SDS_P1;SDS_P2;PMS_P1;PMS_P2;Temp;Humidity;BMP_temperature;BMP_pressure;BME280_temperature;BME280_humidity;BME280_pressure;Samples;Min_cycle;Max_cycle;Signal;HPM_P1;HPM_P2
2024/01/07 00:01:26;;;;;;;15.02;7.05;;;4.90;99.90;;;;;;5019411;28;20694;-81
2024/01/07 00:03:52;;;;;;;10.83;4.93;;;4.90;99.90;;;;;;5017679;28;20273;-81
2024/01/07 00:06:18;;;;;;;15.87;5.63;;;4.90;99.90;;;;;;5017116;28;20220;-83
2024/01/07 00:08:43;;;;;;;9.47;5.23;;;4.90;99.90;;;;;;5010868;28;20305;-81
2024/01/07 00:11:09;;;;;;;12.47;7.13;;;4.90;99.90;;;;;;5014939;28;20202;-81
2024/01/07 00:13:35;;;;;;;11.70;5.13;;;4.90;99.90;;;;;;5019436;28;20194;-84
2024/01/07 00:16:01;;;;;;;7.22;3.00;;;4.80;99.90;;;;;;5013119;28;20208;-82
2024/01/07 00:18:27;;;;;;;8.93;4.10;;;4.80;99.90;;;;;;5010422;28;20185;-82
2024/01/07 00:20:53;;;;;;;7.30;4.07;;;4.80;99.90;;;;;;5015465;28;20699;-79
2024/01/07 00:23:20;;;;;;;6.00;3.28;;;4.80;99.90;;;;;;5017820;28;20189;-79
2024/01/07 00:25:46;;;;;;;7.28;3.70;;;4.80;99.90;;;;;;5015870;28;20745;-81
2024/01/07 00:28:12;;;;;;;10.02;5.13;;;4.80;99.90;;;;;;5009493;28;20725;-83
2024/01/07 00:30:37;;;;;;;10.43;5.47;;;4.70;99.90;;;;;;5010306;28;20178;-76
2024/01/07 00:33:03;;;;;;;14.33;4.80;;;4.70;99.90;;;;;;5026336;28;20687;-78
2024/01/07 00:35:29;;;;;;;8.23;3.70;;;4.70;99.90;;;;;;5012844;28;20189;-85
2024/01/07 00:37:56;;;;;;;9.43;5.20;;;4.70;99.90;;;;;;5013546;28;20228;-82
2024/01/07 00:40:23;;;;;;;10.93;4.75;;;4.70;99.90;;;;;;5013359;28;20188;-81
2024/01/07 00:42:48;;;;;;;6.95;2.78;;;4.70;99.90;;;;;;5009202;28;20228;-84
2024/01/07 00:45:14;;;;;;;14.53;2.87;;;4.70;99.90;;;;;;5013671;28;20281;-82
2024/01/07 00:47:40;;;;;;;12.73;5.27;;;4.70;99.90;;;;;;5008466;28;20213;-82
2024/01/07 00:50:06;;;;;;;11.48;4.15;;;4.80;99.90;;;;;;5011827;28;20214;-84
2024/01/07 00:52:32;;;;;;;8.60;3.40;;;4.70;99.90;;;;;;5013585;28;20186;-81
2024/01/07 00:54:57;;;;;;;6.17;3.27;;;4.70;99.90;;;;;;5012207;28;20498;-84
2024/01/07 00:57:23;;;;;;;6.00;2.90;;;4.80;99.90;;;;;;5010268;28;20255;-79
2024/01/07 00:59:50;;;;;;;6.80;2.90;;;4.80;99.90;;;;;;4994574;28;20548;-82
2024/01/07 01:02:15;;;;;;;11.45;5.20;;;4.70;99.90;;;;;;5020054;28;20182;-78
2024/01/07 01:04:41;;;;;;;9.90;3.47;;;4.80;99.90;;;;;;5014175;28;20279;-82
2024/01/07 01:07:10;;;;;;;10.63;4.10;;;4.90;99.90;;;;;;5025760;28;20209;-77
2024/01/07 01:09:35;;;;;;;10.32;4.28;;;4.80;99.90;;;;;;5019893;28;20197;-77
2024/01/07 01:12:01;;;;;;;6.87;3.10;;;4.90;99.90;;;;;;5019949;28;20194;-81
2024/01/07 01:14:27;;;;;;;3.73;2.67;;;4.80;99.90;;;;;;5019950;28;20246;-79
2024/01/07 01:16:53;;;;;;;7.43;4.55;;;4.70;99.90;;;;;;5008397;28;20836;-80
2024/01/07 01:19:18;;;;;;;6.03;2.90;;;4.70;99.90;;;;;;5009141;28;20198;-85
2024/01/07 01:21:44;;;;;;;6.50;3.50;;;4.80;99.90;;;;;;5010924;28;20193;-85
2024/01/07 01:24:09;;;;;;;6.03;3.23;;;4.80;99.90;;;;;;5020689;28;20220;-83
2024/01/07 01:26:35;;;;;;;8.53;3.93;;;4.80;99.90;;;;;;5027900;28;20252;-78
2024/01/07 01:29:00;;;;;;;7.93;3.17;;;4.80;99.90;;;;;;5011818;28;20265;-82
2024/01/07 01:31:26;;;;;;;4.97;2.43;;;4.80;99.90;;;;;;5009647;28;20201;-80
2024/01/07 01:33:51;;;;;;;11.53;4.10;;;4.80;99.90;;;;;;5023024;28;20228;-80
2024/01/07 01:36:17;;;;;;;8.27;3.47;;;4.90;99.90;;;;;;5016675;28;20269;-77
2024/01/07 01:38:42;;;;;;;7.10;3.43;;;4.90;99.90;;;;;;5024896;28;20198;-81
2024/01/07 01:41:09;;;;;;;8.20;4.00;;;4.90;99.90;;;;;;5015254;28;20190;-83
2024/01/07 01:43:34;;;;;;;8.75;4.55;;;4.80;99.90;;;;;;5012903;28;20273;-83
2024/01/07 01:46:01;;;;;;;9.27;3.67;;;4.90;99.90;;;;;;5009938;28;20398;-81
2024/01/07 01:48:28;;;;;;;10.55;4.07;;;4.90;99.90;;;;;;5010133;28;20182;-81
2024/01/07 01:50:57;;;;;;;9.18;4.05;;;5.00;99.90;;;;;;5007096;28;20183;-82
2024/01/07 01:53:23;;;;;;;5.90;3.97;;;;;;;;;;5013430;28;20516;-80
2024/01/07 01:55:49;;;;;;;9.48;4.20;;;4.90;99.90;;;;;;5020270;28;20209;-83
2024/01/07 01:58:17;;;;;;;15.13;5.07;;;4.90;99.90;;;;;;5009446;28;20210;-82
2024/01/07 02:00:44;;;;;;;9.18;3.50;;;5.00;99.90;;;;;;5001953;28;20208;-81
2024/01/07 02:03:09;;;;;;;10.98;4.95;;;4.90;99.90;;;;;;5009573;28;20901;-84
2024/01/07 02:05:35;;;;;;;12.97;6.37;;;5.00;99.90;;;;;;5006294;28;20749;-83
2024/01/07 02:08:00;;;;;;;7.50;4.23;;;5.00;99.90;;;;;;5021021;28;20217;-83
2024/01/07 02:10:27;;;;;;;10.57;4.47;;;4.90;99.90;;;;;;5009999;28;20262;-82
2024/01/07 02:12:52;;;;;;;14.73;4.10;;;4.90;99.90;;;;;;5016976;28;20193;-80
2024/01/07 02:15:18;;;;;;;10.73;4.37;;;4.90;99.90;;;;;;5021858;28;20195;-83
2024/01/07 02:17:43;;;;;;;16.00;3.97;;;5.00;99.90;;;;;;5007545;28;20225;-80
2024/01/07 02:20:09;;;;;;;10.63;4.70;;;5.00;99.90;;;;;;5013359;28;20190;-79
2024/01/07 02:22:35;;;;;;;5.43;4.20;;;5.00;99.90;;;;;;5012481;28;20699;-79
2024/01/07 02:25:00;;;;;;;7.50;4.37;;;5.00;99.90;;;;;;5018926;28;20220;-80
2024/01/07 02:27:26;;;;;;;8.20;3.63;;;5.00;99.90;;;;;;5013048;28;20259;-81
2024/01/07 02:29:51;;;;;;;9.47;4.10;;;4.90;99.90;;;;;;5006936;28;20179;-83
2024/01/07 02:32:16;;;;;;;6.97;4.07;;;4.90;99.90;;;;;;5009772;28;20276;-82
2024/01/07 02:34:42;;;;;;;13.40;3.83;;;4.90;99.90;;;;;;5007295;28;20209;-82
2024/01/07 02:37:07;;;;;;;12.20;4.43;;;4.90;99.90;;;;;;5006961;28;21089;-82
2024/01/07 02:39:33;;;;;;;9.40;4.17;;;4.90;99.90;;;;;;5011901;28;20235;-80
2024/01/07 02:41:58;;;;;;;10.30;3.90;;;4.90;99.90;;;;;;5015434;28;20194;-77
2024/01/07 02:44:24;;;;;;;10.97;3.57;;;4.80;99.90;;;;;;5021639;28;20205;-80
2024/01/07 02:46:50;;;;;;;12.40;4.43;;;4.90;99.90;;;;;;5006881;28;20280;-81
2024/01/07 02:49:15;;;;;;;11.70;4.97;;;5.00;99.90;;;;;;5009690;28;20182;-84
2024/01/07 02:51:42;;;;;;;12.47;5.03;;;;;;;;;;5007897;28;20190;-80
2024/01/07 02:54:08;;;;;;;8.70;4.97;;;5.00;99.90;;;;;;5007633;28;20636;-82
2024/01/07 02:56:33;;;;;;;14.33;4.43;;;4.90;99.90;;;;;;5013278;28;20249;-83
2024/01/07 02:58:59;;;;;;;13.87;5.80;;;5.00;99.90;;;;;;5015442;28;20194;-86
2024/01/07 03:01:24;;;;;;;11.27;4.60;;;5.00;99.90;;;;;;5021953;28;20728;-85
2024/01/07 03:03:50;;;;;;;11.77;4.43;;;4.90;99.90;;;;;;5008878;28;20323;-82
2024/01/07 03:06:16;;;;;;;9.30;5.13;;;4.80;99.90;;;;;;5007070;28;20213;-81
2024/01/07 03:08:42;;;;;;;13.80;4.33;;;4.80;99.90;;;;;;5011527;28;20680;-84
2024/01/07 03:11:08;;;;;;;8.32;4.22;;;4.80;99.90;;;;;;5012772;28;20212;-81
2024/01/07 03:13:34;;;;;;;8.87;4.80;;;4.80;99.90;;;;;;5028529;28;20255;-82
2024/01/07 03:16:00;;;;;;;13.27;5.20;;;4.80;99.90;;;;;;5018810;28;20276;-82
2024/01/07 03:18:26;;;;;;;15.10;4.60;;;4.80;99.90;;;;;;5016879;28;20189;-79
2024/01/07 03:20:52;;;;;;;10.48;5.30;;;4.90;99.90;;;;;;5022644;28;20185;-82
2024/01/07 03:23:18;;;;;;;6.90;3.63;;;5.00;99.90;;;;;;5022087;28;20194;-85
2024/01/07 03:25:44;;;;;;;12.48;4.43;;;4.90;99.90;;;;;;5016779;28;20210;-82
2024/01/07 03:28:09;;;;;;;16.90;5.13;;;4.80;99.90;;;;;;5008551;28;20205;-84
2024/01/07 03:30:35;;;;;;;17.43;5.63;;;4.80;99.90;;;;;;5019806;28;20190;-83
2024/01/07 03:33:01;;;;;;;10.50;4.30;;;;;;;;;;5011125;28;20201;-81
2024/01/07 03:35:27;;;;;;;9.87;5.90;;;4.80;99.90;;;;;;5006140;28;20186;-82
2024/01/07 03:37:52;;;;;;;15.43;4.33;;;4.80;99.90;;;;;;5009970;28;20465;-79
2024/01/07 03:40:18;;;;;;;17.17;6.10;;;4.90;99.90;;;;;;5011742;28;20958;-83
2024/01/07 03:42:43;;;;;;;16.47;7.73;;;4.80;99.90;;;;;;5012854;28;20206;-83
2024/01/07 03:45:09;;;;;;;13.57;4.83;;;4.80;99.90;;;;;;5017492;28;20210;-80
2024/01/07 03:47:34;;;;;;;17.50;5.43;;;4.80;99.90;;;;;;5026862;28;20292;-83
2024/01/07 03:50:00;;;;;;;10.50;5.27;;;4.80;99.90;;;;;;5030124;28;20221;-80
2024/01/07 03:52:25;;;;;;;17.03;6.87;;;4.80;99.90;;;;;;5016593;28;20288;-77
2024/01/07 03:54:51;;;;;;;11.77;6.10;;;4.80;99.90;;;;;;5013356;28;20185;-81
2024/01/07 03:57:16;;;;;;;13.60;6.07;;;4.90;99.90;;;;;;5012850;28;20570;-84
2024/01/07 03:59:42;;;;;;;10.87;4.23;;;4.90;99.90;;;;;;5013680;28;20268;-80
2024/01/07 04:02:08;;;;;;;8.53;4.30;;;;;;;;;;5015232;28;20383;-79
2024/01/07 04:04:33;;;;;;;14.37;5.37;;;4.80;99.90;;;;;;5014126;28;20731;-82
2024/01/07 04:06:59;;;;;;;7.83;3.60;;;4.80;99.90;;;;;;5006464;28;20484;-83
2024/01/07 04:09:24;;;;;;;10.80;4.00;;;4.80;99.90;;;;;;5006817;28;20190;-82
2024/01/07 04:11:50;;;;;;;9.43;4.17;;;4.80;99.90;;;;;;5016981;28;20264;-79
2024/01/07 04:14:15;;;;;;;17.97;5.43;;;4.80;99.90;;;;;;5016068;28;20190;-83
2024/01/07 04:16:41;;;;;;;7.77;4.90;;;4.80;99.90;;;;;;5013233;28;20214;-79
2024/01/07 04:19:07;;;;;;;9.43;4.43;;;;;;;;;;5021920;28;20688;-81
2024/01/07 04:21:33;;;;;;;9.87;4.77;;;;;;;;;;5017434;28;20220;-80
2024/01/07 04:23:59;;;;;;;7.13;3.53;;;4.90;99.90;;;;;;5015224;28;20598;-82
2024/01/07 04:26:24;;;;;;;18.57;5.60;;;4.80;99.90;;;;;;5014867;28;20297;-81
2024/01/07 04:28:50;;;;;;;9.63;3.00;;;4.80;99.90;;;;;;5013927;28;20274;-81
2024/01/07 04:31:15;;;;;;;8.77;4.80;;;4.80;99.90;;;;;;5012608;28;20523;-82
2024/01/07 04:33:41;;;;;;;8.53;4.57;;;4.70;99.90;;;;;;5011218;28;20199;-81
2024/01/07 04:36:07;;;;;;;11.90;3.57;;;4.80;99.90;;;;;;5012743;28;20240;-81
2024/01/07 04:38:32;;;;;;;8.90;4.27;;;4.70;99.90;;;;;;5008779;28;20879;-84
2024/01/07 04:40:58;;;;;;;7.43;4.53;;;4.70;99.90;;;;;;5014571;28;20453;-83
2024/01/07 04:43:24;;;;;;;17.63;6.43;;;4.70;99.90;;;;;;5013711;28;20194;-82
2024/01/07 04:45:49;;;;;;;21.53;4.83;;;4.70;99.90;;;;;;5010737;28;20700;-83
2024/01/07 04:48:15;;;;;;;13.07;3.53;;;4.70;99.90;;;;;;5011135;28;20210;-79
2024/01/07 04:50:41;;;;;;;6.80;3.27;;;4.50;99.90;;;;;;5010921;28;20797;-80
2024/01/07 04:53:10;;;;;;;9.63;3.47;;;4.70;99.90;;;;;;5011005;28;20192;-81
2024/01/07 04:55:36;;;;;;;13.23;4.45;;;4.70;99.90;;;;;;5020668;28;20623;-79
2024/01/07 04:58:01;;;;;;;12.32;3.35;;;4.70;99.90;;;;;;5018964;28;20202;-79
2024/01/07 05:00:27;;;;;;;10.13;4.73;;;4.60;99.90;;;;;;5014238;28;23459;-80
2024/01/07 05:02:53;;;;;;;10.87;3.90;;;;;;;;;;5018641;28;20580;-82
2024/01/07 05:05:19;;;;;;;9.70;4.20;;;4.70;99.90;;;;;;5008955;28;21118;-83
2024/01/07 05:07:44;;;;;;;5.43;3.37;;;4.70;99.90;;;;;;5008374;28;20484;-81
2024/01/07 05:10:10;;;;;;;6.37;2.70;;;4.60;99.90;;;;;;5008654;28;20710;-80
2024/01/07 05:12:35;;;;;;;15.00;4.80;;;4.70;99.90;;;;;;5010383;28;20208;-82
2024/01/07 05:15:01;;;;;;;8.70;4.07;;;4.60;99.90;;;;;;5011483;28;20717;-85
2024/01/07 05:17:29;;;;;;;5.73;2.90;;;4.60;99.90;;;;;;5011008;28;20245;-80
2024/01/07 05:19:54;;;;;;;10.48;3.70;;;4.60;99.90;;;;;;5022955;28;20198;-80
2024/01/07 05:22:21;;;;;;;9.67;3.77;;;4.60;99.90;;;;;;5010604;28;20205;-80
2024/01/07 05:24:47;;;;;;;9.18;4.43;;;4.50;99.90;;;;;;5026199;28;20244;-81
2024/01/07 05:27:12;;;;;;;8.53;3.90;;;4.60;99.90;;;;;;5020707;28;20209;-79
2024/01/07 05:29:38;;;;;;;10.03;4.87;;;6.70;99.90;;;;;;5016452;28;20224;-81
2024/01/07 05:32:04;;;;;;;13.90;3.83;;;4.60;99.90;;;;;;5021990;28;20205;-80
2024/01/07 05:34:29;;;;;;;9.63;3.00;;;4.60;99.90;;;;;;5010436;28;20191;-85
2024/01/07 05:36:55;;;;;;;13.90;3.70;;;4.60;99.90;;;;;;5018880;28;20468;-81
2024/01/07 05:39:21;;;;;;;11.07;3.90;;;;;;;;;;5010560;28;20236;-85
2024/01/07 05:41:46;;;;;;;9.23;2.97;;;4.50;99.90;;;;;;5009565;28;20202;-82
2024/01/07 05:44:12;;;;;;;10.83;4.07;;;4.50;99.90;;;;;;5004735;28;20514;-80
2024/01/07 05:46:39;;;;;;;6.70;3.20;;;4.40;99.90;;;;;;5007870;28;20256;-82
2024/01/07 05:49:05;;;;;;;7.47;4.20;;;4.40;99.90;;;;;;5010310;28;20445;-80
2024/01/07 05:51:31;;;;;;;11.83;4.10;;;4.50;99.90;;;;;;5011104;28;20186;-86
2024/01/07 05:53:56;;;;;;;12.17;2.60;;;4.50;99.90;;;;;;5014936;28;20224;-80
2024/01/07 05:56:22;;;;;;;9.87;4.33;;;;;;;;;;5010738;28;20807;-85
2024/01/07 05:58:48;;;;;;;8.30;4.15;;;4.40;99.90;;;;;;5015235;28;20597;-78
2024/01/07 06:01:21;;;;;;;13.43;4.43;;;4.40;99.90;;;;;;5020703;28;20200;-80
2024/01/07 06:03:49;;;;;;;10.48;3.70;;;4.50;99.90;;;;;;5010231;28;20198;-83
2024/01/07 06:06:15;;;;;;;12.20;4.30;;;4.40;99.90;;;;;;5019034;28;20220;-83
2024/01/07 06:08:42;;;;;;;10.57;3.20;;;4.40;99.90;;;;;;5010638;28;20194;-83
2024/01/07 06:11:08;;;;;;;9.27;3.65;;;4.40;99.90;;;;;;5017115;28;20438;-82
2024/01/07 06:13:33;;;;;;;11.87;3.97;;;4.40;99.90;;;;;;5016595;28;20190;-80
2024/01/07 06:15:59;;;;;;;10.33;3.43;;;4.40;99.90;;;;;;5019460;28;20456;-81
2024/01/07 06:18:24;;;;;;;10.33;4.60;;;4.40;99.90;;;;;;5017172;28;20216;-82
2024/01/07 06:20:50;;;;;;;8.50;4.07;;;;;;;;;;5010359;28;20222;-83
2024/01/07 06:23:16;;;;;;;6.60;3.37;;;4.40;99.90;;;;;;5005751;28;20198;-81
2024/01/07 06:25:41;;;;;;;7.67;3.23;;;4.40;99.90;;;;;;5003486;28;20463;-83
2024/01/07 06:28:07;;;;;;;8.47;3.50;;;4.40;99.90;;;;;;5004668;28;20587;-80
2024/01/07 06:30:34;;;;;;;9.10;3.40;;;4.40;99.90;;;;;;5022371;28;20201;-84
2024/01/07 06:33:00;;;;;;;15.98;5.90;;;;;;;;;;5016026;28;20264;-82
2024/01/07 06:35:26;;;;;;;9.82;4.60;;;;;;;;;;5015867;28;20245;-82
2024/01/07 06:37:51;;;;;;;8.93;4.50;;;4.40;99.90;;;;;;5007475;28;20210;-85
2024/01/07 06:40:17;;;;;;;6.47;3.70;;;4.40;99.90;;;;;;5011574;28;20540;-80
2024/01/07 06:42:44;;;;;;;8.60;3.90;;;4.40;99.90;;;;;;5005185;28;20190;-81
2024/01/07 06:45:10;;;;;;;5.93;2.55;;;4.40;99.90;;;;;;5006589;28;20213;-82
2024/01/07 06:47:35;;;;;;;13.33;5.00;;;4.30;99.90;;;;;;5011429;28;20214;-80
2024/01/07 06:50:01;;;;;;;12.00;5.07;;;;;;;;;;5010304;28;20815;-84
2024/01/07 06:52:27;;;;;;;7.60;4.47;;;;;;;;;;5010123;28;20247;-78
2024/01/07 06:54:53;;;;;;;9.53;4.37;;;4.30;99.90;;;;;;5023714;28;20444;-82
2024/01/07 06:57:18;;;;;;;7.33;3.93;;;4.30;99.90;;;;;;5012139;28;20464;-81
2024/01/07 06:59:44;;;;;;;6.30;3.13;;;4.40;99.90;;;;;;5008552;28;20196;-85
2024/01/07 07:02:09;;;;;;;7.00;2.97;;;4.50;99.90;;;;;;5008790;28;20363;-81
2024/01/07 07:04:35;;;;;;;4.50;2.80;;;4.60;99.90;;;;;;5009581;28;20186;-80
2024/01/07 07:07:00;;;;;;;5.70;4.10;;;4.60;99.90;;;;;;5023543;28;20212;-81
2024/01/07 07:09:25;;;;;;;6.50;2.50;;;4.60;99.90;;;;;;5019825;28;20190;-84
2024/01/07 07:11:51;;;;;;;8.90;3.90;;;4.60;99.90;;;;;;5021485;28;20244;-86
2024/01/07 07:14:16;;;;;;;7.53;3.50;;;4.60;99.90;;;;;;5019109;28;20191;-82
2024/01/07 07:16:43;;;;;;;3.93;3.20;;;4.50;99.90;;;;;;5014034;28;20619;-85
2024/01/07 07:19:14;;;;;;;8.95;5.30;;;4.60;99.90;;;;;;5011006;28;20193;-80
2024/01/07 07:21:40;;;;;;;6.55;3.67;;;4.70;99.90;;;;;;5015009;28;20182;-80
2024/01/07 07:24:06;;;;;;;6.50;4.07;;;4.70;99.90;;;;;;5016079;28;20565;-82
2024/01/07 07:26:31;;;;;;;11.02;5.55;;;4.70;99.90;;;;;;5013520;28;20468;-83
2024/01/07 07:28:57;;;;;;;11.63;3.23;;;4.70;99.90;;;;;;5009558;28;20193;-80
2024/01/07 07:31:23;;;;;;;5.73;3.47;;;4.80;99.90;;;;;;5016151;28;20205;-86
2024/01/07 07:33:48;;;;;;;12.23;3.90;;;4.80;99.90;;;;;;5010241;28;20193;-88
2024/01/07 07:36:14;;;;;;;4.53;2.40;;;4.80;99.90;;;;;;5023288;28;20185;-77
2024/01/07 07:38:40;;;;;;;7.80;4.28;;;4.70;99.90;;;;;;5029079;28;20703;-81
2024/01/07 07:41:07;;;;;;;7.17;2.90;;;4.70;99.90;;;;;;5014064;28;20193;-80
2024/01/07 07:43:33;;;;;;;9.30;3.80;;;4.70;99.90;;;;;;5010837;28;20190;-81
2024/01/07 07:46:00;;;;;;;6.63;3.10;;;4.70;99.90;;;;;;5013109;28;20237;-79
2024/01/07 07:48:26;;;;;;;10.57;3.75;;;4.60;99.90;;;;;;5005977;28;20201;-86
2024/01/07 07:50:52;;;;;;;7.67;3.50;;;;;;;;;;5010959;28;20537;-82
2024/01/07 07:53:18;;;;;;;18.15;4.20;;;4.60;99.90;;;;;;5010673;28;20444;-85
2024/01/07 07:55:44;;;;;;;8.80;3.93;;;4.60;99.90;;;;;;5014942;28;20194;-85
2024/01/07 07:58:09;;;;;;;7.73;3.00;;;4.60;99.90;;;;;;5004750;28;20527;-83
2024/01/07 08:00:35;;;;;;;6.83;4.27;;;4.50;99.90;;;;;;5011987;28;20479;-85
2024/01/07 08:03:00;;;;;;;7.00;3.07;;;4.50;99.90;;;;;;5014658;28;20187;-80
2024/01/07 08:05:26;;;;;;;5.57;3.20;;;4.50;99.90;;;;;;5014233;28;20212;-83
2024/01/07 08:07:51;;;;;;;9.43;3.40;;;4.50;99.90;;;;;;5011162;28;20248;-81
2024/01/07 08:10:17;;;;;;;9.77;4.03;;;4.50;99.90;;;;;;5007159;28;20189;-80
2024/01/07 08:12:43;;;;;;;6.80;3.43;;;;;;;;;;5028515;28;20201;-86
2024/01/07 08:15:08;;;;;;;13.40;3.90;;;4.50;99.90;;;;;;5018797;28;20260;-80
2024/01/07 08:17:34;;;;;;;7.23;2.83;;;4.50;99.90;;;;;;5017339;28;20574;-86
2024/01/07 08:20:01;;;;;;;11.77;4.03;;;4.50;99.90;;;;;;5009392;28;20194;-78
2024/01/07 08:22:26;;;;;;;4.70;2.40;;;4.50;99.90;;;;;;5006971;28;20254;-80
2024/01/07 08:24:52;;;;;;;18.67;5.03;;;4.50;99.90;;;;;;5010444;28;20280;-83
2024/01/07 08:27:17;;;;;;;6.80;3.13;;;4.40;99.90;;;;;;5008878;28;20272;-80
2024/01/07 08:29:44;;;;;;;3.80;2.50;;;4.30;99.90;;;;;;5018226;28;21220;-86
2024/01/07 08:32:09;;;;;;;4.70;3.53;;;4.40;99.90;;;;;;5009469;28;20224;-84
2024/01/07 08:34:35;;;;;;;6.60;3.43;;;4.40;99.90;;;;;;5011230;28;20284;-82
2024/01/07 08:37:01;;;;;;;6.40;2.90;;;;;;;;;;5013342;28;20202;-82
2024/01/07 08:39:28;;;;;;;4.00;2.50;;;4.30;99.90;;;;;;5003682;28;20191;-80
2024/01/07 08:41:54;;;;;;;10.00;3.33;;;4.20;99.90;;;;;;5015678;28;20440;-84
2024/01/07 08:44:19;;;;;;;3.87;2.80;;;4.30;99.90;;;;;;5031026;28;20559;-85
2024/01/07 08:46:45;;;;;;;4.17;2.47;;;4.30;99.90;;;;;;5017869;28;20221;-81
2024/01/07 08:49:11;;;;;;;3.50;1.80;;;4.30;99.90;;;;;;5010079;28;20923;-81
2024/01/07 08:51:38;;;;;;;4.50;2.13;;;4.20;99.90;;;;;;5010260;28;20456;-81
2024/01/07 08:54:03;;;;;;;10.90;3.13;;;4.50;99.90;;;;;;5007558;28;20182;-86
2024/01/07 08:56:29;;;;;;;9.03;2.90;;;4.20;99.90;;;;;;5012359;28;20245;-84
2024/01/07 08:58:54;;;;;;;9.27;4.00;;;4.20;99.90;;;;;;5009729;28;20289;-86
2024/01/07 09:01:20;;;;;;;5.63;4.00;;;4.20;99.90;;;;;;5004731;28;20724;-80
2024/01/07 09:03:45;;;;;;;5.27;2.97;;;4.20;99.90;;;;;;5013805;28;20962;-83
2024/01/07 09:06:11;;;;;;;7.53;2.23;;;4.20;99.90;;;;;;5008534;28;20727;-81
2024/01/07 09:08:36;;;;;;;6.03;2.50;;;4.20;99.90;;;;;;5006261;28;20190;-86
2024/01/07 09:11:06;;;;;;;7.53;4.60;;;4.10;99.90;;;;;;5011048;28;20186;-83
2024/01/07 09:13:32;;;;;;;8.48;2.65;;;4.10;99.90;;;;;;5008340;28;20228;-83
2024/01/07 09:15:58;;;;;;;3.43;2.80;;;;;;;;;;5007730;28;20198;-85
2024/01/07 09:18:23;;;;;;;4.97;3.03;;;3.90;99.90;;;;;;5014674;28;20512;-80
2024/01/07 09:20:49;;;;;;;4.17;2.03;;;;;;;;;;5020338;28;20263;-85
2024/01/07 09:23:15;;;;;;;3.10;2.50;;;3.80;99.90;;;;;;5020784;28;20194;-83
2024/01/07 09:25:41;;;;;;;3.75;3.03;;;3.70;99.90;;;;;;5025467;28;20476;-85
2024/01/07 09:28:07;;;;;;;6.22;3.25;;;3.70;99.90;;;;;;5015107;28;20205;-84
2024/01/07 09:30:33;;;;;;;3.67;1.87;;;3.80;99.90;;;;;;5014776;28;20203;-81
2024/01/07 09:32:58;;;;;;;4.30;2.87;;;3.80;99.90;;;;;;5014693;28;20612;-84
2024/01/07 09:35:23;;;;;;;3.63;1.60;;;3.70;99.90;;;;;;5003366;28;20190;-82
2024/01/07 09:37:49;;;;;;;3.20;1.60;;;3.70;99.90;;;;;;5024739;28;20209;-81
2024/01/07 09:40:21;;;;;;;2.50;1.30;;;3.70;99.90;;;;;;5003109;28;20267;-84
2024/01/07 09:42:47;;;;;;;1.25;1.15;;;3.60;99.90;;;;;;5005575;28;20190;-80
2024/01/07 09:45:13;;;;;;;4.67;2.07;;;3.60;99.90;;;;;;5010240;28;20722;-78
2024/01/07 09:47:45;;;;;;;1.50;0.70;;;3.50;99.90;;;;;;5008949;28;20453;-81
2024/01/07 09:50:11;;;;;;;0.95;0.95;;;3.40;99.90;;;;;;5022457;28;20293;-82
2024/01/07 09:52:42;;;;;;;2.43;1.50;;;3.30;99.90;;;;;;5020961;28;20294;-80
2024/01/07 09:55:09;;;;;;;8.45;1.65;;;3.30;99.90;;;;;;5008640;28;20452;-80
2024/01/07 09:57:36;;;;;;;2.13;1.92;;;3.30;99.90;;;;;;5005179;28;20229;-79
2024/01/07 10:00:02;;;;;;;1.55;1.25;;;3.30;99.90;;;;;;5015515;28;20186;-82
2024/01/07 10:02:28;;;;;;;1.23;0.80;;;3.30;99.90;;;;;;5004787;28;20193;-81
2024/01/07 10:04:53;;;;;;;2.45;1.52;;;3.40;99.90;;;;;;5005482;28;20625;-82
2024/01/07 10:07:19;;;;;;;2.27;1.23;;;3.30;99.90;;;;;;5009671;28;20802;-82
2024/01/07 10:09:44;;;;;;;4.83;2.43;;;3.30;99.90;;;;;;5006415;28;20181;-82
2024/01/07 10:12:12;;;;;;;2.73;2.53;;;3.30;99.90;;;;;;5012844;28;20662;-84
2024/01/07 10:14:39;;;;;;;3.67;1.65;;;3.50;99.90;;;;;;5011955;28;20174;-82
2024/01/07 10:17:15;;;;;;;2.80;1.58;;;3.50;99.90;;;;;;5010115;28;20272;-83
2024/01/07 10:19:44;;;;;;;1.50;1.10;;;3.50;99.90;;;;;;5004864;28;20225;-83
2024/01/07 10:22:12;;;;;;;1.95;1.15;;;3.60;99.90;;;;;;5009252;28;20836;-84
2024/01/07 10:24:43;;;;;;;0.93;0.80;;;3.60;99.90;;;;;;5031462;28;20217;-85
2024/01/07 10:27:10;;;;;;;5.35;1.67;;;3.80;99.90;;;;;;5023500;28;20209;-80
2024/01/07 10:29:35;;;;;;;1.70;0.85;;;3.80;99.90;;;;;;5022762;28;20205;-84
2024/01/07 10:32:03;;;;;;;2.50;2.00;;;3.90;99.90;;;;;;5013945;28;20187;-82
2024/01/07 10:34:31;;;;;;;2.97;1.02;;;4.00;99.90;;;;;;5017983;28;20236;-88
2024/01/07 10:36:59;;;;;;;2.55;1.73;;;4.00;99.90;;;;;;5012684;28;20210;-82
2024/01/07 10:39:24;;;;;;;2.58;1.73;;;4.00;99.90;;;;;;5016848;28;20243;-83
2024/01/07 10:41:53;;;;;;;2.23;1.93;;;4.00;99.90;;;;;;5015981;28;21036;-82
2024/01/07 10:44:19;;;;;;;2.53;1.98;;;4.00;99.90;;;;;;5017867;28;20720;-80
2024/01/07 10:46:46;;;;;;;5.27;1.30;;;3.90;99.90;;;;;;5010030;28;20217;-85
2024/01/07 10:49:20;;;;;;;1.15;0.93;;;3.00;99.90;;;;;;5016762;28;20659;-83
2024/01/07 10:52:07;;;;;;;2.58;1.85;;;3.90;99.90;;;;;;5023365;28;20245;-84
2024/01/07 10:54:35;;;;;;;2.15;1.95;;;3.90;99.90;;;;;;5026037;28;20185;-84
2024/01/07 10:57:21;;;;;;;1.70;1.38;;;3.80;99.90;;;;;;5018474;28;20439;-83
2024/01/07 10:59:48;;;;;;;3.15;1.95;;;3.80;99.90;;;;;;5014339;28;20223;-85
2024/01/07 11:02:14;;;;;;;1.02;1.02;;;3.60;99.90;;;;;;5009543;28;20259;-85
2024/01/07 11:04:51;;;;;;;2.55;1.60;;;3.60;99.90;;;;;;5012939;28;20247;-80
2024/01/07 11:07:37;;;;;;;1.67;0.73;;;3.60;99.90;;;;;;5020277;28;20228;-80
2024/01/07 11:10:11;;;;;;;1.92;1.25;;;3.50;99.90;;;;;;5021902;28;20175;-85
2024/01/07 11:12:37;;;;;;;2.13;1.08;;;3.40;99.90;;;;;;5009041;28;20186;-81
2024/01/07 11:15:03;;;;;;;3.15;1.48;;;3.40;99.90;;;;;;5016813;28;20204;-82
2024/01/07 11:17:32;;;;;;;3.77;1.70;;;3.40;99.90;;;;;;5032184;28;20198;-84
2024/01/07 11:20:00;;;;;;;3.78;3.50;;;3.40;99.90;;;;;;5014845;28;20456;-83
2024/01/07 11:22:29;;;;;;;2.13;1.70;;;3.40;99.90;;;;;;5018557;28;20186;-83
2024/01/07 11:24:59;;;;;;;2.70;2.50;;;3.40;99.90;;;;;;5017701;28;20185;-83
2024/01/07 11:27:28;;;;;;;1.85;1.75;;;3.40;99.90;;;;;;5018265;28;20217;-82
2024/01/07 11:30:06;;;;;;;5.95;3.38;;;3.40;99.90;;;;;;5024632;28;20177;-80
2024/01/07 11:32:34;;;;;;;2.90;2.17;;;3.50;99.90;;;;;;5022173;28;20265;-78
2024/01/07 11:35:00;;;;;;;1.90;1.30;;;3.40;99.90;;;;;;5017363;28;20182;-85
2024/01/07 11:37:26;;;;;;;1.58;1.48;;;3.40;99.90;;;;;;5018817;28;20231;-81
2024/01/07 11:39:56;;;;;;;2.70;1.42;;;3.30;99.90;;;;;;5018270;28;20739;-85
2024/01/07 11:42:22;;;;;;;6.82;2.55;;;3.30;99.90;;;;;;5014373;28;20186;-87
2024/01/07 11:44:50;;;;;;;4.43;1.75;;;3.40;99.90;;;;;;5017991;28;20194;-82
2024/01/07 11:47:16;;;;;;;3.45;1.80;;;3.40;99.90;;;;;;5015318;28;20516;-83
2024/01/07 11:49:42;;;;;;;3.00;1.25;;;3.20;99.90;;;;;;5018666;28;20193;-85
2024/01/07 11:52:10;;;;;;;4.67;1.27;;;3.20;99.90;;;;;;5021935;28;20186;-82
2024/01/07 11:54:36;;;;;;;2.78;1.60;;;3.10;99.90;;;;;;5018862;28;20181;-83
2024/01/07 11:57:02;;;;;;;3.72;3.38;;;3.20;99.90;;;;;;5016097;28;20263;-86
2024/01/07 11:59:29;;;;;;;2.33;1.20;;;3.20;99.90;;;;;;5024070;28;20217;-80
2024/01/07 12:01:55;;;;;;;5.88;1.63;;;3.10;99.90;;;;;;5024269;28;20229;-85
2024/01/07 12:04:20;;;;;;;2.03;1.93;;;3.00;99.90;;;;;;5018208;28;20674;-83
2024/01/07 12:06:48;;;;;;;3.00;1.33;;;3.10;99.90;;;;;;5017123;28;20221;-82
2024/01/07 12:09:16;;;;;;;5.38;2.03;;;3.10;99.90;;;;;;5012467;28;20441;-83
2024/01/07 12:11:42;;;;;;;3.70;3.30;;;3.10;99.90;;;;;;5020552;28;20771;-81
2024/01/07 12:14:10;;;;;;;4.00;1.70;;;3.10;99.90;;;;;;5016075;28;20193;-83
2024/01/07 12:16:36;;;;;;;4.55;2.40;;;3.00;99.90;;;;;;5012356;28;20371;-83
2024/01/07 12:19:01;;;;;;;2.38;2.28;;;3.00;99.90;;;;;;5011219;28;20289;-80
2024/01/07 12:21:29;;;;;;;5.00;2.47;;;2.90;99.90;;;;;;5018275;28;20216;-81
2024/01/07 12:23:56;;;;;;;5.40;2.80;;;2.90;99.90;;;;;;5019777;28;20191;-84
2024/01/07 12:26:28;;;;;;;2.88;1.60;;;2.80;99.90;;;;;;5014772;28;20715;-84
2024/01/07 12:28:57;;;;;;;2.53;2.15;;;2.90;99.90;;;;;;5014768;28;20182;-82
2024/01/07 12:31:23;;;;;;;3.33;2.25;;;2.90;99.90;;;;;;5014641;28;20189;-82
2024/01/07 12:33:49;;;;;;;6.35;3.08;;;2.80;99.90;;;;;;5019860;28;20181;-78
2024/01/07 12:36:14;;;;;;;4.53;2.67;;;2.80;99.90;;;;;;5028145;28;20200;-82
2024/01/07 12:38:41;;;;;;;3.63;2.70;;;2.90;99.90;;;;;;5015973;28;21261;-85
2024/01/07 12:41:06;;;;;;;2.80;2.60;;;2.80;99.90;;;;;;5024264;28;20395;-83
2024/01/07 12:43:33;;;;;;;2.63;1.70;;;2.70;99.90;;;;;;5015305;28;20185;-87
2024/01/07 12:46:04;;;;;;;3.85;1.75;;;2.60;99.90;;;;;;5012850;28;20518;-83
2024/01/07 12:48:30;;;;;;;1.25;1.15;;;2.50;99.90;;;;;;5014860;28;20205;-84
2024/01/07 12:50:57;;;;;;;4.40;2.53;;;2.60;99.90;;;;;;5017324;28;20202;-82
2024/01/07 12:53:23;;;;;;;3.60;2.10;;;2.60;99.90;;;;;;5012729;28;20604;-84
2024/01/07 12:55:48;;;;;;;5.50;2.97;;;2.60;99.90;;;;;;5020034;28;20875;-83